createdAt,value
2018-08-19T00:00:29.226Z,81.00
2018-08-19T00:03:01.936Z,80.30
2018-08-19T00:05:30.677Z,81.70
2018-08-19T00:07:59.208Z,81.80
2018-08-19T00:10:41.971Z,81.00
2018-08-19T00:13:12.149Z,81.70
2018-08-19T00:15:41.794Z,81.90
2018-08-19T00:18:11.866Z,82.00
2018-08-19T00:20:40.402Z,82.20
2018-08-19T00:23:09.322Z,83.40
2018-08-19T00:25:40.727Z,83.90
2018-08-19T00:28:10.746Z,83.60
2018-08-19T00:30:39.241Z,84.00
2018-08-19T00:33:07.746Z,84.10
2018-08-19T00:35:36.286Z,84.00
2018-08-19T00:38:04.818Z,84.20
2018-08-19T00:40:33.313Z,84.30
2018-08-19T00:43:01.812Z,84.50
2018-08-19T00:45:30.509Z,85.00
2018-08-19T00:47:59.006Z,85.50
2018-08-19T00:50:27.510Z,85.30
2018-08-19T00:52:56.254Z,85.30
2018-08-19T00:55:26.064Z,86.20
2018-08-19T00:57:57.195Z,86.90
2018-08-19T01:00:26.226Z,87.10
2018-08-19T01:02:54.667Z,87.10
2018-08-19T01:05:23.207Z,87.20
2018-08-19T01:07:51.705Z,87.00
2018-08-19T01:10:20.293Z,86.70
2018-08-19T01:12:48.782Z,86.90
2018-08-19T01:15:17.267Z,87.20
2018-08-19T01:17:46.248Z,88.20
2018-08-19T01:20:22.365Z,89.40
2018-08-19T01:22:50.941Z,89.90
2018-08-19T01:25:19.418Z,90.20
2018-08-19T01:27:47.995Z,90.10
2018-08-19T01:30:18.766Z,90.70
2018-08-19T01:32:47.528Z,90.60
2018-08-19T01:35:16.346Z,90.60
2018-08-19T01:37:44.841Z,90.90
2018-08-19T01:40:16.827Z,91.10
2018-08-19T01:42:45.759Z,91.30
2018-08-19T01:45:14.223Z,91.40
2018-08-19T01:47:42.688Z,91.50
2018-08-19T01:50:13.255Z,91.50
2018-08-19T01:52:42.357Z,92.00
2018-08-19T01:55:10.847Z,92.40
2018-08-19T01:57:46.345Z,92.50
2018-08-19T02:00:16.450Z,92.60
2018-08-19T02:03:03.431Z,92.80
2018-08-19T02:05:32.035Z,93.30
2018-08-19T02:08:02.636Z,93.30
2018-08-19T02:10:32.310Z,93.40
2018-08-19T02:13:01.097Z,93.50
2018-08-19T02:15:30.666Z,93.40
2018-08-19T02:18:00.409Z,93.30
2018-08-19T02:20:32.364Z,93.50
2018-08-19T02:23:02.112Z,93.60
2018-08-19T02:25:38.701Z,93.30
2018-08-19T02:28:08.371Z,93.50
2018-08-19T02:30:46.261Z,93.60
2018-08-19T02:33:14.785Z,93.50
2018-08-19T02:35:44.588Z,93.80
2018-08-19T02:38:13.152Z,94.30
2018-08-19T02:40:41.610Z,94.30
2018-08-19T02:43:10.164Z,94.20
2018-08-19T02:45:38.607Z,94.60
2018-08-19T02:48:07.135Z,94.80
2018-08-19T02:50:35.609Z,94.50
2018-08-19T02:53:04.167Z,94.30
2018-08-19T02:55:32.627Z,94.40
2018-08-19T02:58:06.527Z,94.80
2018-08-19T03:00:34.980Z,94.80
2018-08-19T03:03:03.554Z,95.00
2018-08-19T03:05:32.011Z,95.00
2018-08-19T03:08:01.365Z,95.20
2018-08-19T03:10:30.087Z,95.20
2018-08-19T03:12:58.521Z,95.40
2018-08-19T03:15:27.027Z,95.10
2018-08-19T03:17:55.464Z,95.20
2018-08-19T03:20:23.919Z,95.10
2018-08-19T03:22:52.345Z,95.40
2018-08-19T03:25:20.822Z,95.40
2018-08-19T03:27:49.234Z,95.60
2018-08-19T03:30:17.690Z,95.90
2018-08-19T03:33:05.971Z,95.90
2018-08-19T03:35:34.433Z,96.10
2018-08-19T03:38:11.183Z,96.20
2018-08-19T03:40:39.606Z,96.40
2018-08-19T03:43:09.609Z,96.80
2018-08-19T03:45:39.332Z,97.00
2018-08-19T03:48:08.717Z,96.70
2018-08-19T03:50:39.694Z,96.30
2018-08-19T03:53:08.242Z,96.20
2018-08-19T03:55:38.971Z,96.30
2018-08-19T03:58:08.642Z,96.20
2018-08-19T04:00:41.775Z,96.20
2018-08-19T04:03:16.863Z,96.40
2018-08-19T04:05:49.618Z,96.60
2018-08-19T04:08:18.039Z,97.20
2018-08-19T04:10:47.333Z,96.80
2018-08-19T04:13:34.988Z,96.70
2018-08-19T04:16:04.578Z,96.90
2018-08-19T04:18:34.835Z,97.00
2018-08-19T04:21:04.792Z,97.30
2018-08-19T04:23:36.404Z,97.90
2018-08-19T04:26:05.641Z,98.30
2018-08-19T04:28:38.755Z,98.40
2018-08-19T04:31:13.632Z,98.60
2018-08-19T04:33:43.574Z,99.10
2018-08-19T04:36:12.739Z,99.10
2018-08-19T04:38:41.517Z,99.90
2018-08-19T04:41:10.078Z,99.90
2018-08-19T04:43:38.553Z,99.90
2018-08-19T04:46:07.023Z,99.90
2018-08-19T04:48:35.511Z,99.90
2018-08-19T04:51:04.010Z,99.90
2018-08-19T04:53:33.353Z,99.90
2018-08-19T04:56:01.879Z,99.90
2018-08-19T04:58:30.403Z,99.90
2018-08-19T05:00:58.934Z,99.90
2018-08-19T05:03:27.411Z,99.90
2018-08-19T05:05:57.998Z,99.90
2018-08-19T05:08:26.646Z,99.90
2018-08-19T05:10:55.074Z,99.90
2018-08-19T05:13:23.496Z,99.90
2018-08-19T05:15:51.966Z,99.90
2018-08-19T05:18:20.448Z,99.90
2018-08-19T05:20:48.957Z,99.90
2018-08-19T05:23:17.418Z,99.90
2018-08-19T05:25:51.090Z,99.90
2018-08-19T05:28:19.653Z,99.90
2018-08-19T05:30:48.208Z,99.90
2018-08-19T05:33:16.675Z,99.90
2018-08-19T05:35:45.154Z,99.90
2018-08-19T05:38:13.625Z,99.90
2018-08-19T05:40:48.602Z,99.90
2018-08-19T05:43:17.156Z,99.90
2018-08-19T05:46:01.025Z,99.90
2018-08-19T05:48:29.903Z,99.90
2018-08-19T05:50:58.740Z,99.90
2018-08-19T05:53:27.240Z,99.90
2018-08-19T05:55:55.793Z,99.90
2018-08-19T05:58:24.315Z,99.90
2018-08-19T06:00:54.770Z,99.90
2018-08-19T06:03:23.287Z,99.90
2018-08-19T06:05:52.509Z,99.90
2018-08-19T06:08:21.071Z,99.90
2018-08-19T06:10:49.591Z,99.90
2018-08-19T06:13:18.050Z,99.90
2018-08-19T06:15:46.617Z,99.90
2018-08-19T06:18:15.110Z,99.90
2018-08-19T06:20:44.280Z,99.90
2018-08-19T06:23:12.811Z,99.90
2018-08-19T06:25:41.315Z,99.90
2018-08-19T06:28:09.867Z,99.80
2018-08-19T06:30:38.358Z,99.50
2018-08-19T06:33:06.864Z,99.70
2018-08-19T06:35:35.353Z,99.50
2018-08-19T06:38:03.863Z,98.90
2018-08-19T06:40:32.694Z,98.50
2018-08-19T06:43:01.248Z,98.80
2018-08-19T06:45:29.708Z,98.70
2018-08-19T06:47:58.167Z,98.70
2018-08-19T06:50:29.089Z,98.70
2018-08-19T06:52:57.630Z,98.20
2018-08-19T06:55:26.337Z,98.10
2018-08-19T06:57:56.703Z,97.70
2018-08-19T07:00:29.090Z,97.40
2018-08-19T07:03:00.409Z,97.00
2018-08-19T07:05:29.118Z,96.80
2018-08-19T07:07:57.630Z,96.70
2018-08-19T07:10:32.178Z,96.50
2018-08-19T07:13:06.373Z,96.30
2018-08-19T07:15:36.106Z,96.10
2018-08-19T07:18:05.000Z,95.80
2018-08-19T07:20:33.769Z,96.10
2018-08-19T07:23:02.266Z,96.10
2018-08-19T07:25:30.707Z,95.60
2018-08-19T07:27:59.175Z,95.30
2018-08-19T07:30:27.638Z,95.30
2018-08-19T07:32:56.133Z,94.90
2018-08-19T07:35:24.569Z,95.40
2018-08-19T07:37:53.041Z,95.30
2018-08-19T07:40:21.474Z,95.60
2018-08-19T07:42:50.330Z,94.90
2018-08-19T07:45:18.786Z,95.10
2018-08-19T07:47:47.304Z,94.80
2018-08-19T07:50:15.806Z,94.00
2018-08-19T07:52:44.342Z,93.60
2018-08-19T07:55:12.801Z,93.20
2018-08-19T07:57:41.893Z,93.50
2018-08-19T08:00:11.155Z,92.30
2018-08-19T08:02:39.722Z,92.40
2018-08-19T08:05:09.642Z,92.20
2018-08-19T08:07:42.718Z,92.40
2018-08-19T08:10:11.219Z,92.50
2018-08-19T08:12:39.718Z,92.90
2018-08-19T08:15:08.428Z,91.20
2018-08-19T08:17:38.339Z,90.80
2018-08-19T08:20:07.431Z,90.20
2018-08-19T08:22:36.603Z,91.00
2018-08-19T08:25:07.015Z,90.30
2018-08-19T08:27:36.754Z,88.70
2018-08-19T08:30:11.877Z,90.40
2018-08-19T08:32:41.178Z,90.00
2018-08-19T08:35:09.860Z,89.60
2018-08-19T08:37:39.167Z,88.10
2018-08-19T08:40:08.678Z,86.50
2018-08-19T08:42:42.594Z,86.30
2018-08-19T08:45:12.372Z,86.00
2018-08-19T08:47:41.058Z,85.60
2018-08-19T08:50:10.841Z,84.10
2018-08-19T08:52:42.078Z,85.20
2018-08-19T08:55:11.478Z,85.70
2018-08-19T08:57:39.963Z,84.40
2018-08-19T09:00:09.658Z,82.50
2018-08-19T09:02:38.138Z,80.40
2018-08-19T09:05:10.038Z,80.90
2018-08-19T09:07:38.830Z,81.30
2018-08-19T09:10:07.631Z,79.80
2018-08-19T09:12:46.657Z,76.90
2018-08-19T09:15:15.201Z,74.80
2018-08-19T09:17:43.772Z,75.80
2018-08-19T09:20:12.426Z,74.90
2018-08-19T09:22:41.260Z,75.80
2018-08-19T09:25:10.574Z,73.40
2018-08-19T09:27:39.622Z,71.70
2018-08-19T09:30:09.462Z,71.80
2018-08-19T09:32:53.600Z,71.80
2018-08-19T09:35:22.067Z,73.80
2018-08-19T09:37:52.570Z,71.70
2018-08-19T09:40:20.992Z,73.20
2018-08-19T09:42:49.458Z,72.30
2018-08-19T09:45:17.911Z,72.30
2018-08-19T09:47:46.463Z,69.70
2018-08-19T09:50:14.924Z,69.90
2018-08-19T09:52:43.445Z,69.70
2018-08-19T09:55:11.889Z,71.00
2018-08-19T09:57:44.565Z,69.10
2018-08-19T10:00:13.379Z,67.80
2018-08-19T10:02:47.259Z,68.10
2018-08-19T10:05:25.375Z,66.40
2018-08-19T10:07:55.418Z,65.80
2018-08-19T10:10:24.695Z,68.90
2018-08-19T10:12:53.182Z,66.40
2018-08-19T10:15:21.710Z,64.60
2018-08-19T10:17:50.215Z,63.80
2018-08-19T10:20:18.842Z,63.40
2018-08-19T10:22:47.354Z,65.10
2018-08-19T10:25:17.267Z,61.90
2018-08-19T10:27:54.558Z,64.50
2018-08-19T10:30:23.046Z,64.50
2018-08-19T10:33:00.336Z,61.40
2018-08-19T10:35:29.831Z,61.70
2018-08-19T10:37:58.864Z,60.60
2018-08-19T10:40:27.412Z,58.30
2018-08-19T10:43:02.286Z,59.50
2018-08-19T10:45:30.785Z,58.10
2018-08-19T10:47:59.310Z,58.50
2018-08-19T10:50:29.588Z,58.20
2018-08-19T10:52:58.091Z,57.90
2018-08-19T10:55:27.018Z,57.90
2018-08-19T10:57:55.586Z,58.60
2018-08-19T11:00:32.094Z,57.40
2018-08-19T11:03:09.275Z,59.30
2018-08-19T11:05:40.953Z,57.80
2018-08-19T11:08:10.115Z,60.70
2018-08-19T11:10:38.607Z,59.00
2018-08-19T11:13:07.351Z,57.40
2018-08-19T11:15:43.805Z,57.40
2018-08-19T11:18:21.530Z,57.60
2018-08-19T11:20:51.611Z,57.50
2018-08-19T11:23:22.199Z,55.80
2018-08-19T11:25:51.662Z,58.20
2018-08-19T11:28:32.763Z,57.50
2018-08-19T11:31:01.227Z,56.60
2018-08-19T11:33:36.616Z,56.20
2018-08-19T11:36:05.334Z,55.50
2018-08-19T11:38:34.074Z,54.80
2018-08-19T11:41:07.690Z,55.80
2018-08-19T11:43:39.595Z,54.90
2018-08-19T11:46:08.642Z,52.50
2018-08-19T11:48:37.897Z,54.40
2018-08-19T11:51:06.510Z,53.70
2018-08-19T11:53:35.349Z,53.40
2018-08-19T11:56:03.956Z,53.20
2018-08-19T11:58:49.432Z,52.70
2018-08-19T12:01:20.193Z,55.40
2018-08-19T12:04:11.639Z,54.70
2018-08-19T12:06:40.120Z,52.80
2018-08-19T12:09:09.829Z,52.60
2018-08-19T12:11:41.531Z,52.40
2018-08-19T12:14:12.873Z,51.70
2018-08-19T12:16:50.110Z,50.60
2018-08-19T12:19:20.840Z,52.10
2018-08-19T12:21:51.569Z,50.40
2018-08-19T12:24:25.564Z,50.40
2018-08-19T12:26:55.434Z,50.70
2018-08-19T12:29:25.515Z,50.40
2018-08-19T12:32:00.243Z,50.40
2018-08-19T12:34:28.674Z,50.90
2018-08-19T12:36:57.152Z,50.80
2018-08-19T12:39:25.660Z,50.40
2018-08-19T12:41:54.763Z,50.00
2018-08-19T12:44:23.279Z,48.10
2018-08-19T12:47:07.579Z,49.60
2018-08-19T12:49:39.099Z,49.10
2018-08-19T12:52:08.335Z,50.80
2018-08-19T12:54:36.872Z,50.10
2018-08-19T12:57:05.422Z,50.80
2018-08-19T12:59:34.320Z,49.60
2018-08-19T13:02:02.871Z,48.90
2018-08-19T13:04:31.352Z,50.40
2018-08-19T13:07:03.767Z,49.90
2018-08-19T13:09:32.599Z,50.10
2018-08-19T13:12:05.129Z,50.30
2018-08-19T13:14:33.678Z,50.00
2018-08-19T13:17:02.148Z,51.50
2018-08-19T13:19:31.241Z,50.70
2018-08-19T13:22:00.838Z,50.00
2018-08-19T13:24:38.626Z,50.40
2018-08-19T13:27:08.486Z,50.50
2018-08-19T13:29:37.744Z,49.00
2018-08-19T13:32:06.301Z,49.50
2018-08-19T13:34:34.747Z,50.80
2018-08-19T13:37:03.513Z,49.40
2018-08-19T13:39:32.112Z,50.00
2018-08-19T13:42:00.595Z,50.40
2018-08-19T13:44:29.369Z,49.10
2018-08-19T13:46:57.883Z,50.00
2018-08-19T13:49:27.726Z,48.80
2018-08-19T13:51:59.313Z,49.00
2018-08-19T13:54:27.887Z,49.90
2018-08-19T13:56:56.391Z,48.70
2018-08-19T13:59:24.879Z,48.60
2018-08-19T14:01:53.368Z,49.40
2018-08-19T14:04:21.915Z,48.70
2018-08-19T14:06:50.405Z,49.30
2018-08-19T14:09:18.875Z,49.30
2018-08-19T14:11:47.324Z,49.90
2018-08-19T14:14:15.832Z,49.90
2018-08-19T14:16:44.299Z,49.30
2018-08-19T14:19:12.771Z,50.20
2018-08-19T14:21:41.254Z,49.60
2018-08-19T14:24:09.699Z,49.80
2018-08-19T14:26:38.178Z,50.30
2018-08-19T14:29:06.626Z,51.60
2018-08-19T14:31:35.108Z,50.90
2018-08-19T14:34:03.606Z,48.90
2018-08-19T14:36:32.211Z,50.00
2018-08-19T14:39:00.660Z,49.60
2018-08-19T14:41:29.146Z,50.00
2018-08-19T14:44:03.066Z,48.40
2018-08-19T14:46:32.771Z,48.20
2018-08-19T14:49:03.612Z,47.80
2018-08-19T14:52:05.429Z,48.30
2018-08-19T14:54:33.922Z,48.50
2018-08-19T14:57:02.408Z,47.40
2018-08-19T14:59:30.903Z,47.30
2018-08-19T15:01:59.469Z,48.00
2018-08-19T15:04:27.921Z,48.70
2018-08-19T15:06:56.425Z,49.20
2018-08-19T15:09:30.367Z,48.40
2018-08-19T15:12:05.479Z,48.70
2018-08-19T15:14:34.478Z,48.50
2018-08-19T15:17:03.078Z,49.10
2018-08-19T15:19:31.514Z,49.20
2018-08-19T15:22:00.019Z,49.50
2018-08-19T15:24:28.481Z,49.60
2018-08-19T15:26:56.999Z,50.50
2018-08-19T15:29:28.798Z,48.40
2018-08-19T15:31:58.313Z,48.80
2018-08-19T15:34:26.689Z,48.80
2018-08-19T15:36:55.266Z,49.40
2018-08-19T15:39:23.719Z,49.60
2018-08-19T15:41:52.239Z,47.80
2018-08-19T15:44:20.691Z,47.60
2018-08-19T15:46:49.223Z,47.50
2018-08-19T15:49:21.556Z,46.10
2018-08-19T15:51:50.107Z,46.10
2018-08-19T15:54:18.696Z,45.80
2018-08-19T15:56:47.233Z,46.60
2018-08-19T15:59:15.967Z,45.90
2018-08-19T16:01:45.186Z,46.70
2018-08-19T16:04:16.040Z,46.20
2018-08-19T16:06:48.357Z,44.90
2018-08-19T16:09:18.729Z,44.40
2018-08-19T16:11:47.767Z,45.20
2018-08-19T16:14:30.587Z,44.50
2018-08-19T16:17:00.572Z,45.30
2018-08-19T16:19:29.103Z,45.40
2018-08-19T16:21:58.537Z,43.70
2018-08-19T16:24:27.500Z,44.00
2018-08-19T16:26:56.030Z,44.40
2018-08-19T16:29:24.490Z,44.90
2018-08-19T16:31:53.049Z,43.80
2018-08-19T16:34:21.507Z,44.10
2018-08-19T16:36:49.962Z,44.00
2018-08-19T16:39:18.933Z,45.00
2018-08-19T16:41:47.300Z,43.90
2018-08-19T16:44:15.739Z,44.60
2018-08-19T16:46:44.275Z,43.70
2018-08-19T16:49:13.025Z,44.10
2018-08-19T16:51:41.637Z,44.40
2018-08-19T16:54:10.096Z,44.50
2018-08-19T16:56:38.594Z,44.50
2018-08-19T16:59:07.067Z,45.20
2018-08-19T17:01:35.764Z,45.30
2018-08-19T17:04:04.250Z,45.50
2018-08-19T17:06:32.707Z,45.70
2018-08-19T17:09:01.183Z,45.90
2018-08-19T17:11:29.759Z,45.70
2018-08-19T17:13:58.250Z,45.70
2018-08-19T17:16:29.268Z,45.90
2018-08-19T17:18:57.891Z,46.20
2018-08-19T17:21:26.403Z,45.90
2018-08-19T17:23:54.900Z,45.60
2018-08-19T17:26:24.399Z,46.00
2018-08-19T17:28:53.198Z,45.80
2018-08-19T17:31:21.811Z,45.90
2018-08-19T17:33:50.284Z,46.40
2018-08-19T17:36:25.158Z,46.80
2018-08-19T17:38:58.616Z,47.20
2018-08-19T17:41:29.224Z,47.50
2018-08-19T17:44:01.398Z,47.30
2018-08-19T17:46:29.883Z,48.70
2018-08-19T17:48:58.376Z,47.80
2018-08-19T17:51:35.359Z,48.30
2018-08-19T17:54:07.190Z,49.00
2018-08-19T17:56:35.647Z,49.10
2018-08-19T17:59:05.112Z,48.50
2018-08-19T18:01:35.164Z,48.90
2018-08-19T18:04:03.695Z,49.20
2018-08-19T18:06:32.185Z,50.60
2018-08-19T18:09:00.695Z,51.30
2018-08-19T18:11:29.176Z,52.80
2018-08-19T18:13:57.689Z,51.90
2018-08-19T18:16:26.416Z,51.90
2018-08-19T18:18:55.098Z,51.50
2018-08-19T18:21:23.566Z,52.00
2018-08-19T18:23:52.039Z,52.30
2018-08-19T18:26:20.487Z,52.70
2018-08-19T18:28:49.231Z,53.40
2018-08-19T18:31:22.151Z,54.10
2018-08-19T18:33:54.338Z,54.70
2018-08-19T18:36:24.786Z,55.50
2018-08-19T18:38:53.259Z,56.00
2018-08-19T18:41:27.542Z,57.30
2018-08-19T18:43:58.158Z,57.70
2018-08-19T18:46:27.065Z,58.90
2018-08-19T18:49:02.515Z,60.80
2018-08-19T18:51:32.222Z,60.60
2018-08-19T18:54:01.065Z,61.30
2018-08-19T18:56:29.798Z,62.00
2018-08-19T18:58:58.637Z,63.20
2018-08-19T19:01:28.109Z,63.20
2018-08-19T19:03:56.565Z,60.90
2018-08-19T19:06:25.419Z,58.90
2018-08-19T19:08:53.949Z,58.10
2018-08-19T19:11:23.578Z,57.20
2018-08-19T19:13:52.030Z,57.20
2018-08-19T19:16:33.720Z,57.40
2018-08-19T19:19:02.197Z,57.50
2018-08-19T19:21:30.695Z,58.00
2018-08-19T19:23:59.187Z,57.80
2018-08-19T19:26:40.349Z,58.30
2018-08-19T19:29:14.836Z,58.20
2018-08-19T19:31:43.299Z,59.00
2018-08-19T19:34:15.321Z,59.40
2018-08-19T19:36:43.805Z,59.60
2018-08-19T19:39:12.316Z,60.00
2018-08-19T19:41:40.743Z,59.90
2018-08-19T19:44:22.830Z,60.20
2018-08-19T19:46:51.822Z,60.20
2018-08-19T19:49:20.793Z,60.40
2018-08-19T19:52:03.911Z,62.20
2018-08-19T19:54:33.611Z,63.30
2018-08-19T19:57:02.418Z,63.70
2018-08-19T19:59:32.416Z,64.60
2018-08-19T20:02:00.975Z,65.40
2018-08-19T20:04:29.362Z,65.50
2018-08-19T20:06:57.823Z,65.40
2018-08-19T20:09:26.610Z,66.20
2018-08-19T20:11:55.095Z,66.10
2018-08-19T20:14:23.559Z,66.10
2018-08-19T20:16:52.014Z,66.10
2018-08-19T20:19:20.503Z,66.00
2018-08-19T20:21:48.955Z,66.40
2018-08-19T20:24:17.399Z,66.40
2018-08-19T20:26:46.131Z,66.80
2018-08-19T20:29:14.587Z,66.20
2018-08-19T20:31:43.075Z,66.30
2018-08-19T20:34:11.520Z,66.20
2018-08-19T20:36:39.958Z,66.70
2018-08-19T20:39:08.427Z,66.50
2018-08-19T20:41:36.883Z,67.10
2018-08-19T20:44:07.709Z,67.10
2018-08-19T20:46:37.543Z,67.30
2018-08-19T20:49:06.048Z,67.60
2018-08-19T20:51:34.487Z,67.30
2018-08-19T20:54:02.962Z,67.60
2018-08-19T20:56:31.399Z,68.40
2018-08-19T20:58:59.930Z,69.40
2018-08-19T21:01:28.877Z,69.90
2018-08-19T21:03:57.939Z,70.10
2018-08-19T21:06:26.370Z,70.80
2018-08-19T21:08:54.818Z,71.30
2018-08-19T21:11:23.283Z,72.40
2018-08-19T21:13:51.741Z,72.20
2018-08-19T21:16:20.175Z,72.90
2018-08-19T21:18:48.619Z,73.30
2018-08-19T21:21:17.087Z,73.80
2018-08-19T21:23:45.541Z,74.30
2018-08-19T21:26:13.987Z,74.60
2018-08-19T21:28:48.368Z,74.60
2018-08-19T21:31:17.202Z,74.80
2018-08-19T21:33:45.666Z,75.20
2018-08-19T21:36:14.093Z,75.70
2018-08-19T21:38:42.559Z,75.70
2018-08-19T21:41:10.982Z,75.50
2018-08-19T21:43:39.434Z,75.50
2018-08-19T21:46:07.893Z,76.20
2018-08-19T21:48:36.500Z,76.00
2018-08-19T21:51:04.974Z,75.60
2018-08-19T21:53:33.429Z,75.50
2018-08-19T21:56:01.907Z,75.70
2018-08-19T21:58:30.387Z,76.00
2018-08-19T22:01:00.581Z,76.50
2018-08-19T22:03:34.374Z,77.20
2018-08-19T22:06:08.167Z,77.40
2018-08-19T22:08:36.622Z,78.30
2018-08-19T22:11:05.220Z,78.60
2018-08-19T22:13:33.657Z,78.80
2018-08-19T22:16:02.138Z,78.50
2018-08-19T22:18:31.515Z,79.10
2018-08-19T22:21:08.882Z,79.40
2018-08-19T22:23:42.410Z,79.60
2018-08-19T22:26:11.926Z,80.00
2018-08-19T22:28:40.770Z,80.00
2018-08-19T22:31:21.343Z,80.40
2018-08-19T22:33:52.982Z,80.60
2018-08-19T22:36:21.775Z,81.10
2018-08-19T22:38:50.866Z,81.10
2018-08-19T22:41:22.000Z,81.60
2018-08-19T22:43:50.875Z,82.40
2018-08-19T22:46:19.401Z,82.70
2018-08-19T22:48:47.883Z,83.70
2018-08-19T22:51:16.340Z,84.00
2018-08-19T22:53:44.767Z,84.20
2018-08-19T22:56:13.231Z,83.40
2018-08-19T22:58:41.703Z,82.80
2018-08-19T23:01:10.233Z,83.10
2018-08-19T23:03:38.699Z,82.90
2018-08-19T23:06:07.211Z,83.00
2018-08-19T23:08:35.673Z,83.70
2018-08-19T23:11:04.775Z,84.40
2018-08-19T23:13:44.563Z,85.40
2018-08-19T23:16:13.507Z,86.70
2018-08-19T23:18:42.787Z,87.70
2018-08-19T23:21:11.581Z,88.40
2018-08-19T23:23:40.020Z,88.80
2018-08-19T23:26:08.520Z,88.30
2018-08-19T23:28:36.962Z,89.20
2018-08-19T23:31:05.421Z,89.10
2018-08-19T23:33:33.839Z,88.80
2018-08-19T23:36:02.342Z,89.20
2018-08-19T23:38:30.762Z,90.20
2018-08-19T23:40:59.221Z,90.40
2018-08-19T23:43:27.649Z,90.10
2018-08-19T23:45:56.106Z,90.40
2018-08-19T23:48:24.539Z,90.80
2018-08-19T23:50:53.011Z,91.30
2018-08-19T23:53:21.467Z,91.50
2018-08-19T23:55:49.918Z,91.40
2018-08-19T23:58:18.395Z,91.30
